sensor_id;sensor_type;location;lat;lon;timestamp;pressure;altitude;pressure_sealevel;temperature
56286;BMP180;42191;47.562;9.686;2023-07-24T00:00:49;96223.00;;;24.90
56286;BMP180;42191;47.562;9.686;2023-07-24T00:03:15;96212.00;;;24.90
56286;BMP180;42191;47.562;9.686;2023-07-24T00:05:41;96223.00;;;24.90
56286;BMP180;42191;47.562;9.686;2023-07-24T00:08:07;96216.00;;;24.90
56286;BMP180;42191;47.562;9.686;2023-07-24T00:10:33;96219.00;;;24.90
56286;BMP180;42191;47.562;9.686;2023-07-24T00:12:59;96223.00;;;24.90
56286;BMP180;42191;47.562;9.686;2023-07-24T00:15:26;96216.00;;;24.90
56286;BMP180;42191;47.562;9.686;2023-07-24T00:17:52;96231.00;;;24.90
56286;BMP180;42191;47.562;9.686;2023-07-24T00:20:18;96223.00;;;25.00
56286;BMP180;42191;47.562;9.686;2023-07-24T00:22:44;96214.00;;;25.00
56286;BMP180;42191;47.562;9.686;2023-07-24T00:25:10;96217.00;;;25.00
56286;BMP180;42191;47.562;9.686;2023-07-24T00:27:36;96210.00;;;25.00
56286;BMP180;42191;47.562;9.686;2023-07-24T00:30:03;96205.00;;;25.00
56286;BMP180;42191;47.562;9.686;2023-07-24T00:32:29;96204.00;;;25.00
56286;BMP180;42191;47.562;9.686;2023-07-24T00:34:55;96198.00;;;24.90
56286;BMP180;42191;47.562;9.686;2023-07-24T00:37:21;96197.00;;;24.90
56286;BMP180;42191;47.562;9.686;2023-07-24T00:39:47;96197.00;;;24.90
56286;BMP180;42191;47.562;9.686;2023-07-24T00:42:13;96200.00;;;25.00
56286;BMP180;42191;47.562;9.686;2023-07-24T00:44:39;96199.00;;;25.00
56286;BMP180;42191;47.562;9.686;2023-07-24T00:47:05;96199.00;;;25.00
56286;BMP180;42191;47.562;9.686;2023-07-24T00:49:31;96202.00;;;25.10
56286;BMP180;42191;47.562;9.686;2023-07-24T00:51:57;96189.00;;;25.10
56286;BMP180;42191;47.562;9.686;2023-07-24T00:54:23;96180.00;;;25.10
56286;BMP180;42191;47.562;9.686;2023-07-24T00:56:49;96171.00;;;25.10
56286;BMP180;42191;47.562;9.686;2023-07-24T00:59:15;96179.00;;;25.20
56286;BMP180;42191;47.562;9.686;2023-07-24T01:01:42;96181.00;;;25.20
56286;BMP180;42191;47.562;9.686;2023-07-24T01:04:08;96195.00;;;25.30
56286;BMP180;42191;47.562;9.686;2023-07-24T01:06:34;96194.00;;;25.40
56286;BMP180;42191;47.562;9.686;2023-07-24T01:09:00;96208.00;;;25.50
56286;BMP180;42191;47.562;9.686;2023-07-24T01:14:27;96236.00;;;25.80
56286;BMP180;42191;47.562;9.686;2023-07-24T01:16:44;96196.00;;;25.90
56286;BMP180;42191;47.562;9.686;2023-07-24T01:19:16;96191.00;;;26.10
56286;BMP180;42191;47.562;9.686;2023-07-24T01:21:56;96214.00;;;26.20
56286;BMP180;42191;47.562;9.686;2023-07-24T01:24:29;96240.00;;;26.20
56286;BMP180;42191;47.562;9.686;2023-07-24T01:26:57;96251.00;;;26.20
56286;BMP180;42191;47.562;9.686;2023-07-24T01:29:23;96269.00;;;26.30
56286;BMP180;42191;47.562;9.686;2023-07-24T01:31:49;96285.00;;;26.30
56286;BMP180;42191;47.562;9.686;2023-07-24T01:34:15;96328.00;;;26.30
56286;BMP180;42191;47.562;9.686;2023-07-24T01:36:41;96380.00;;;26.30
56286;BMP180;42191;47.562;9.686;2023-07-24T01:39:07;96363.00;;;26.30
56286;BMP180;42191;47.562;9.686;2023-07-24T01:41:33;96326.00;;;26.30
56286;BMP180;42191;47.562;9.686;2023-07-24T01:43:59;96346.00;;;26.20
56286;BMP180;42191;47.562;9.686;2023-07-24T01:46:25;96333.00;;;26.20
56286;BMP180;42191;47.562;9.686;2023-07-24T01:48:51;96314.00;;;26.10
56286;BMP180;42191;47.562;9.686;2023-07-24T01:51:18;96296.00;;;26.10
56286;BMP180;42191;47.562;9.686;2023-07-24T01:53:44;96287.00;;;26.10
56286;BMP180;42191;47.562;9.686;2023-07-24T01:56:10;96269.00;;;26.00
56286;BMP180;42191;47.562;9.686;2023-07-24T01:58:36;96258.00;;;26.00
56286;BMP180;42191;47.562;9.686;2023-07-24T02:01:02;96248.00;;;26.00
56286;BMP180;42191;47.562;9.686;2023-07-24T02:03:28;96248.00;;;26.00
56286;BMP180;42191;47.562;9.686;2023-07-24T02:05:54;96243.00;;;25.90
56286;BMP180;42191;47.562;9.686;2023-07-24T02:08:20;96242.00;;;25.80
56286;BMP180;42191;47.562;9.686;2023-07-24T02:10:48;96227.00;;;25.80
56286;BMP180;42191;47.562;9.686;2023-07-24T02:13:14;96234.00;;;25.70
56286;BMP180;42191;47.562;9.686;2023-07-24T02:15:40;96219.00;;;25.60
56286;BMP180;42191;47.562;9.686;2023-07-24T02:18:06;96222.00;;;25.60
56286;BMP180;42191;47.562;9.686;2023-07-24T02:20:32;96221.00;;;25.50
56286;BMP180;42191;47.562;9.686;2023-07-24T02:22:58;96210.00;;;25.50
56286;BMP180;42191;47.562;9.686;2023-07-24T02:25:24;96222.00;;;25.50
56286;BMP180;42191;47.562;9.686;2023-07-24T02:27:50;96210.00;;;25.40
56286;BMP180;42191;47.562;9.686;2023-07-24T02:30:16;96230.00;;;25.40
56286;BMP180;42191;47.562;9.686;2023-07-24T02:32:42;96218.00;;;25.40
56286;BMP180;42191;47.562;9.686;2023-07-24T02:35:08;96208.00;;;25.40
56286;BMP180;42191;47.562;9.686;2023-07-24T02:37:34;96203.00;;;25.40
56286;BMP180;42191;47.562;9.686;2023-07-24T02:40:01;96194.00;;;25.30
56286;BMP180;42191;47.562;9.686;2023-07-24T02:42:27;96199.00;;;25.30
56286;BMP180;42191;47.562;9.686;2023-07-24T02:44:53;96183.00;;;25.30
56286;BMP180;42191;47.562;9.686;2023-07-24T02:47:19;96173.00;;;25.20
56286;BMP180;42191;47.562;9.686;2023-07-24T02:49:45;96164.00;;;25.20
56286;BMP180;42191;47.562;9.686;2023-07-24T02:52:11;96176.00;;;25.10
56286;BMP180;42191;47.562;9.686;2023-07-24T02:54:37;96163.00;;;25.10
56286;BMP180;42191;47.562;9.686;2023-07-24T02:57:04;96160.00;;;25.00
56286;BMP180;42191;47.562;9.686;2023-07-24T02:59:30;96145.00;;;25.00
56286;BMP180;42191;47.562;9.686;2023-07-24T03:01:57;96163.00;;;24.90
56286;BMP180;42191;47.562;9.686;2023-07-24T03:04:24;96177.00;;;24.90
56286;BMP180;42191;47.562;9.686;2023-07-24T03:06:50;96179.00;;;24.80
56286;BMP180;42191;47.562;9.686;2023-07-24T03:09:16;96175.00;;;24.70
56286;BMP180;42191;47.562;9.686;2023-07-24T03:11:42;96160.00;;;24.70
56286;BMP180;42191;47.562;9.686;2023-07-24T03:14:08;96160.00;;;24.60
56286;BMP180;42191;47.562;9.686;2023-07-24T03:16:35;96175.00;;;24.60
56286;BMP180;42191;47.562;9.686;2023-07-24T03:19:01;96182.00;;;24.50
56286;BMP180;42191;47.562;9.686;2023-07-24T03:21:27;96173.00;;;24.50
56286;BMP180;42191;47.562;9.686;2023-07-24T03:23:53;96170.00;;;24.40
56286;BMP180;42191;47.562;9.686;2023-07-24T03:26:19;96182.00;;;24.40
56286;BMP180;42191;47.562;9.686;2023-07-24T03:28:45;96180.00;;;24.40
56286;BMP180;42191;47.562;9.686;2023-07-24T03:31:11;96192.00;;;24.30
56286;BMP180;42191;47.562;9.686;2023-07-24T03:33:37;96196.00;;;24.30
56286;BMP180;42191;47.562;9.686;2023-07-24T03:36:03;96203.00;;;24.30
56286;BMP180;42191;47.562;9.686;2023-07-24T03:38:29;96199.00;;;24.30
56286;BMP180;42191;47.562;9.686;2023-07-24T03:40:56;96184.00;;;24.20
56286;BMP180;42191;47.562;9.686;2023-07-24T03:43:22;96165.00;;;24.20
56286;BMP180;42191;47.562;9.686;2023-07-24T03:45:48;96184.00;;;24.20
56286;BMP180;42191;47.562;9.686;2023-07-24T03:48:14;96185.00;;;24.10
56286;BMP180;42191;47.562;9.686;2023-07-24T03:50:41;96164.00;;;24.10
56286;BMP180;42191;47.562;9.686;2023-07-24T03:53:07;96150.00;;;24.10
56286;BMP180;42191;47.562;9.686;2023-07-24T03:55:33;96165.00;;;24.00
56286;BMP180;42191;47.562;9.686;2023-07-24T03:57:59;96161.00;;;24.00
56286;BMP180;42191;47.562;9.686;2023-07-24T04:00:25;96159.00;;;23.90
56286;BMP180;42191;47.562;9.686;2023-07-24T04:02:51;96166.00;;;23.90
56286;BMP180;42191;47.562;9.686;2023-07-24T04:05:17;96154.00;;;23.80
56286;BMP180;42191;47.562;9.686;2023-07-24T04:07:44;96160.00;;;23.80
56286;BMP180;42191;47.562;9.686;2023-07-24T04:10:10;96159.00;;;23.80
56286;BMP180;42191;47.562;9.686;2023-07-24T04:12:36;96149.00;;;23.80
56286;BMP180;42191;47.562;9.686;2023-07-24T04:15:02;96140.00;;;23.80
56286;BMP180;42191;47.562;9.686;2023-07-24T04:17:28;96134.00;;;23.80
56286;BMP180;42191;47.562;9.686;2023-07-24T04:19:54;96126.00;;;23.80
56286;BMP180;42191;47.562;9.686;2023-07-24T04:22:20;96113.00;;;23.80
56286;BMP180;42191;47.562;9.686;2023-07-24T04:24:47;96130.00;;;23.80
56286;BMP180;42191;47.562;9.686;2023-07-24T04:27:13;96126.00;;;23.80
56286;BMP180;42191;47.562;9.686;2023-07-24T04:29:39;96123.00;;;23.80
56286;BMP180;42191;47.562;9.686;2023-07-24T04:32:05;96125.00;;;23.80
56286;BMP180;42191;47.562;9.686;2023-07-24T04:34:31;96120.00;;;23.90
56286;BMP180;42191;47.562;9.686;2023-07-24T04:36:58;96135.00;;;23.90
56286;BMP180;42191;47.562;9.686;2023-07-24T04:39:24;96146.00;;;24.00
56286;BMP180;42191;47.562;9.686;2023-07-24T04:41:51;96142.00;;;24.00
56286;BMP180;42191;47.562;9.686;2023-07-24T04:44:17;96142.00;;;24.10
56286;BMP180;42191;47.562;9.686;2023-07-24T04:46:43;96140.00;;;24.10
56286;BMP180;42191;47.562;9.686;2023-07-24T04:49:09;96132.00;;;24.20
56286;BMP180;42191;47.562;9.686;2023-07-24T04:51:35;96122.00;;;24.30
56286;BMP180;42191;47.562;9.686;2023-07-24T04:54:01;96136.00;;;24.30
56286;BMP180;42191;47.562;9.686;2023-07-24T04:56:27;96137.00;;;24.30
56286;BMP180;42191;47.562;9.686;2023-07-24T04:58:53;96134.00;;;24.30
56286;BMP180;42191;47.562;9.686;2023-07-24T05:01:19;96128.00;;;24.30
56286;BMP180;42191;47.562;9.686;2023-07-24T05:03:45;96122.00;;;24.30
56286;BMP180;42191;47.562;9.686;2023-07-24T05:06:11;96114.00;;;24.30
56286;BMP180;42191;47.562;9.686;2023-07-24T05:08:37;96108.00;;;24.40
56286;BMP180;42191;47.562;9.686;2023-07-24T05:11:03;96114.00;;;24.40
56286;BMP180;42191;47.562;9.686;2023-07-24T05:13:29;96100.00;;;24.50
56286;BMP180;42191;47.562;9.686;2023-07-24T05:15:55;96098.00;;;24.60
56286;BMP180;42191;47.562;9.686;2023-07-24T05:18:22;96104.00;;;24.60
56286;BMP180;42191;47.562;9.686;2023-07-24T05:20:48;96106.00;;;24.70
56286;BMP180;42191;47.562;9.686;2023-07-24T05:23:17;96116.00;;;24.80
56286;BMP180;42191;47.562;9.686;2023-07-24T05:25:43;96113.00;;;24.80
56286;BMP180;42191;47.562;9.686;2023-07-24T05:28:09;96136.00;;;24.90
56286;BMP180;42191;47.562;9.686;2023-07-24T05:30:36;96170.00;;;24.90
56286;BMP180;42191;47.562;9.686;2023-07-24T05:33:02;96204.00;;;24.90
56286;BMP180;42191;47.562;9.686;2023-07-24T05:35:28;96260.00;;;24.90
56286;BMP180;42191;47.562;9.686;2023-07-24T05:37:54;96285.00;;;24.90
56286;BMP180;42191;47.562;9.686;2023-07-24T05:40:20;96294.00;;;24.90
56286;BMP180;42191;47.562;9.686;2023-07-24T05:42:46;96389.00;;;24.80
56286;BMP180;42191;47.562;9.686;2023-07-24T05:45:13;96440.00;;;24.70
56286;BMP180;42191;47.562;9.686;2023-07-24T05:47:42;96492.00;;;24.40
56286;BMP180;42191;47.562;9.686;2023-07-24T05:50:08;96518.00;;;24.10
56286;BMP180;42191;47.562;9.686;2023-07-24T05:52:35;96543.00;;;23.80
56286;BMP180;42191;47.562;9.686;2023-07-24T05:55:01;96520.00;;;23.50
56286;BMP180;42191;47.562;9.686;2023-07-24T05:57:27;96514.00;;;23.20
56286;BMP180;42191;47.562;9.686;2023-07-24T05:59:53;96484.00;;;23.00
56286;BMP180;42191;47.562;9.686;2023-07-24T06:02:19;96469.00;;;22.80
56286;BMP180;42191;47.562;9.686;2023-07-24T06:04:45;96459.00;;;22.70
56286;BMP180;42191;47.562;9.686;2023-07-24T06:07:12;96440.00;;;22.50
56286;BMP180;42191;47.562;9.686;2023-07-24T06:09:38;96430.00;;;22.40
56286;BMP180;42191;47.562;9.686;2023-07-24T06:12:05;96423.00;;;22.40
56286;BMP180;42191;47.562;9.686;2023-07-24T06:14:31;96420.00;;;22.30
56286;BMP180;42191;47.562;9.686;2023-07-24T06:16:57;96419.00;;;22.30
56286;BMP180;42191;47.562;9.686;2023-07-24T06:19:23;96404.00;;;22.30
56286;BMP180;42191;47.562;9.686;2023-07-24T06:21:49;96400.00;;;22.30
56286;BMP180;42191;47.562;9.686;2023-07-24T06:24:15;96405.00;;;22.30
56286;BMP180;42191;47.562;9.686;2023-07-24T06:26:41;96400.00;;;22.40
56286;BMP180;42191;47.562;9.686;2023-07-24T06:29:07;96414.00;;;22.50
56286;BMP180;42191;47.562;9.686;2023-07-24T06:31:33;96426.00;;;22.50
56286;BMP180;42191;47.562;9.686;2023-07-24T06:33:59;96431.00;;;22.60
56286;BMP180;42191;47.562;9.686;2023-07-24T06:36:25;96419.00;;;22.60
56286;BMP180;42191;47.562;9.686;2023-07-24T06:38:52;96395.00;;;22.70
56286;BMP180;42191;47.562;9.686;2023-07-24T06:41:18;96371.00;;;22.70
56286;BMP180;42191;47.562;9.686;2023-07-24T06:43:46;96360.00;;;22.80
56286;BMP180;42191;47.562;9.686;2023-07-24T06:46:12;96302.00;;;22.80
56286;BMP180;42191;47.562;9.686;2023-07-24T06:48:38;96290.00;;;22.80
56286;BMP180;42191;47.562;9.686;2023-07-24T06:51:04;96299.00;;;22.90
56286;BMP180;42191;47.562;9.686;2023-07-24T06:53:30;96276.00;;;22.90
56286;BMP180;42191;47.562;9.686;2023-07-24T06:55:56;96266.00;;;23.00
56286;BMP180;42191;47.562;9.686;2023-07-24T06:58:22;96268.00;;;23.10
56286;BMP180;42191;47.562;9.686;2023-07-24T07:00:48;96258.00;;;23.20
56286;BMP180;42191;47.562;9.686;2023-07-24T07:03:14;96259.00;;;23.30
56286;BMP180;42191;47.562;9.686;2023-07-24T07:05:40;96257.00;;;23.40
56286;BMP180;42191;47.562;9.686;2023-07-24T07:08:06;96274.00;;;23.50
56286;BMP180;42191;47.562;9.686;2023-07-24T07:10:32;96258.00;;;23.50
56286;BMP180;42191;47.562;9.686;2023-07-24T07:12:58;96263.00;;;23.60
56286;BMP180;42191;47.562;9.686;2023-07-24T07:15:25;96247.00;;;23.70
56286;BMP180;42191;47.562;9.686;2023-07-24T07:17:51;96240.00;;;23.80
56286;BMP180;42191;47.562;9.686;2023-07-24T07:20:17;96248.00;;;23.80
56286;BMP180;42191;47.562;9.686;2023-07-24T07:22:43;96245.00;;;23.90
56286;BMP180;42191;47.562;9.686;2023-07-24T07:25:09;96256.00;;;23.90
56286;BMP180;42191;47.562;9.686;2023-07-24T07:27:35;96261.00;;;23.90
56286;BMP180;42191;47.562;9.686;2023-07-24T07:30:02;96262.00;;;23.90
56286;BMP180;42191;47.562;9.686;2023-07-24T07:32:28;96267.00;;;23.90
56286;BMP180;42191;47.562;9.686;2023-07-24T07:34:54;96284.00;;;23.80
56286;BMP180;42191;47.562;9.686;2023-07-24T07:37:20;96275.00;;;23.80
56286;BMP180;42191;47.562;9.686;2023-07-24T07:39:46;96268.00;;;23.80
56286;BMP180;42191;47.562;9.686;2023-07-24T07:42:12;96265.00;;;23.80
56286;BMP180;42191;47.562;9.686;2023-07-24T07:44:38;96278.00;;;23.90
56286;BMP180;42191;47.562;9.686;2023-07-24T07:47:04;96267.00;;;23.90
56286;BMP180;42191;47.562;9.686;2023-07-24T07:49:32;96274.00;;;23.90
56286;BMP180;42191;47.562;9.686;2023-07-24T07:51:58;96264.00;;;24.00
56286;BMP180;42191;47.562;9.686;2023-07-24T07:54:24;96245.00;;;24.10
56286;BMP180;42191;47.562;9.686;2023-07-24T07:56:50;96251.00;;;24.20
56286;BMP180;42191;47.562;9.686;2023-07-24T07:59:16;96248.00;;;24.40
56286;BMP180;42191;47.562;9.686;2023-07-24T08:01:42;96238.00;;;24.50
56286;BMP180;42191;47.562;9.686;2023-07-24T08:04:08;96233.00;;;24.60
56286;BMP180;42191;47.562;9.686;2023-07-24T08:06:34;96214.00;;;24.70
56286;BMP180;42191;47.562;9.686;2023-07-24T08:09:01;96208.00;;;24.80
56286;BMP180;42191;47.562;9.686;2023-07-24T08:11:27;96214.00;;;24.90
56286;BMP180;42191;47.562;9.686;2023-07-24T08:13:53;96223.00;;;25.10
56286;BMP180;42191;47.562;9.686;2023-07-24T08:16:19;96228.00;;;25.20
56286;BMP180;42191;47.562;9.686;2023-07-24T08:18:48;96241.00;;;25.30
56286;BMP180;42191;47.562;9.686;2023-07-24T08:21:15;96248.00;;;25.40
56286;BMP180;42191;47.562;9.686;2023-07-24T08:23:42;96260.00;;;25.40
56286;BMP180;42191;47.562;9.686;2023-07-24T08:26:08;96273.00;;;25.40
56286;BMP180;42191;47.562;9.686;2023-07-24T08:28:34;96256.00;;;25.50
56286;BMP180;42191;47.562;9.686;2023-07-24T08:31:01;96262.00;;;25.50
56286;BMP180;42191;47.562;9.686;2023-07-24T08:33:28;96258.00;;;25.60
56286;BMP180;42191;47.562;9.686;2023-07-24T08:36:03;96235.00;;;25.60
56286;BMP180;42191;47.562;9.686;2023-07-24T08:38:29;96214.00;;;25.60
56286;BMP180;42191;47.562;9.686;2023-07-24T08:41:06;96198.00;;;25.60
56286;BMP180;42191;47.562;9.686;2023-07-24T08:43:33;96204.00;;;25.70
56286;BMP180;42191;47.562;9.686;2023-07-24T08:46:00;96188.00;;;25.80
56286;BMP180;42191;47.562;9.686;2023-07-24T08:48:33;96142.00;;;25.90
56286;BMP180;42191;47.562;9.686;2023-07-24T08:51:02;96141.00;;;26.00
56286;BMP180;42191;47.562;9.686;2023-07-24T08:53:29;96128.00;;;26.10
56286;BMP180;42191;47.562;9.686;2023-07-24T08:55:59;96106.00;;;26.20
56286;BMP180;42191;47.562;9.686;2023-07-24T08:58:25;96111.00;;;26.40
56286;BMP180;42191;47.562;9.686;2023-07-24T09:00:51;96127.00;;;26.70
56286;BMP180;42191;47.562;9.686;2023-07-24T09:03:18;96122.00;;;26.90
56286;BMP180;42191;47.562;9.686;2023-07-24T09:05:45;96122.00;;;27.10
56286;BMP180;42191;47.562;9.686;2023-07-24T09:08:12;96132.00;;;27.30
56286;BMP180;42191;47.562;9.686;2023-07-24T09:10:38;96126.00;;;27.50
56286;BMP180;42191;47.562;9.686;2023-07-24T09:13:04;96117.00;;;27.80
56286;BMP180;42191;47.562;9.686;2023-07-24T09:15:45;96117.00;;;27.90
56286;BMP180;42191;47.562;9.686;2023-07-24T09:18:11;96117.00;;;28.10
56286;BMP180;42191;47.562;9.686;2023-07-24T09:20:41;96132.00;;;28.20
56286;BMP180;42191;47.562;9.686;2023-07-24T09:23:09;96123.00;;;28.30
56286;BMP180;42191;47.562;9.686;2023-07-24T09:25:36;96123.00;;;28.40
56286;BMP180;42191;47.562;9.686;2023-07-24T09:30:37;96104.00;;;28.50
56286;BMP180;42191;47.562;9.686;2023-07-24T09:33:03;96114.00;;;28.70
56286;BMP180;42191;47.562;9.686;2023-07-24T09:35:29;96122.00;;;28.80
56286;BMP180;42191;47.562;9.686;2023-07-24T09:38:05;96100.00;;;28.90
56286;BMP180;42191;47.562;9.686;2023-07-24T09:40:45;96090.00;;;28.90
56286;BMP180;42191;47.562;9.686;2023-07-24T09:43:17;96092.00;;;29.00
56286;BMP180;42191;47.562;9.686;2023-07-24T09:45:45;96082.00;;;29.00
56286;BMP180;42191;47.562;9.686;2023-07-24T09:48:12;96076.00;;;29.00
56286;BMP180;42191;47.562;9.686;2023-07-24T09:50:42;96073.00;;;29.00
56286;BMP180;42191;47.562;9.686;2023-07-24T09:53:17;96066.00;;;29.00
56286;BMP180;42191;47.562;9.686;2023-07-24T09:58:16;96082.00;;;29.30
56286;BMP180;42191;47.562;9.686;2023-07-24T10:00:45;96071.00;;;29.30
56286;BMP180;42191;47.562;9.686;2023-07-24T10:03:11;96062.00;;;29.30
56286;BMP180;42191;47.562;9.686;2023-07-24T10:05:37;96056.00;;;29.40
56286;BMP180;42191;47.562;9.686;2023-07-24T10:08:04;96044.00;;;29.50
56286;BMP180;42191;47.562;9.686;2023-07-24T10:10:30;96036.00;;;29.60
56286;BMP180;42191;47.562;9.686;2023-07-24T10:12:58;96036.00;;;29.60
56286;BMP180;42191;47.562;9.686;2023-07-24T10:15:25;96041.00;;;29.70
56286;BMP180;42191;47.562;9.686;2023-07-24T10:18:05;96044.00;;;29.70
56286;BMP180;42191;47.562;9.686;2023-07-24T10:20:36;96032.00;;;29.70
56286;BMP180;42191;47.562;9.686;2023-07-24T10:23:03;96034.00;;;29.70
56286;BMP180;42191;47.562;9.686;2023-07-24T10:25:34;96032.00;;;29.60
56286;BMP180;42191;47.562;9.686;2023-07-24T10:28:08;96026.00;;;29.60
56286;BMP180;42191;47.562;9.686;2023-07-24T10:30:37;96030.00;;;29.60
56286;BMP180;42191;47.562;9.686;2023-07-24T10:33:18;96033.00;;;29.50
56286;BMP180;42191;47.562;9.686;2023-07-24T10:35:47;96036.00;;;29.50
56286;BMP180;42191;47.562;9.686;2023-07-24T10:38:15;96041.00;;;29.40
56286;BMP180;42191;47.562;9.686;2023-07-24T10:40:43;96034.00;;;29.30
56286;BMP180;42191;47.562;9.686;2023-07-24T10:43:13;96044.00;;;29.30
56286;BMP180;42191;47.562;9.686;2023-07-24T10:45:51;96055.00;;;29.20
56286;BMP180;42191;47.562;9.686;2023-07-24T10:48:19;96058.00;;;29.10
56286;BMP180;42191;47.562;9.686;2023-07-24T10:50:47;96062.00;;;29.00
56286;BMP180;42191;47.562;9.686;2023-07-24T10:53:23;96078.00;;;28.90
56286;BMP180;42191;47.562;9.686;2023-07-24T10:55:50;96090.00;;;28.90
56286;BMP180;42191;47.562;9.686;2023-07-24T10:58:17;96102.00;;;28.80
56286;BMP180;42191;47.562;9.686;2023-07-24T11:00:45;96112.00;;;28.70
56286;BMP180;42191;47.562;9.686;2023-07-24T11:03:13;96107.00;;;28.70
56286;BMP180;42191;47.562;9.686;2023-07-24T11:05:43;96112.00;;;28.60
56286;BMP180;42191;47.562;9.686;2023-07-24T11:08:11;96141.00;;;28.60
56286;BMP180;42191;47.562;9.686;2023-07-24T11:13:11;96150.00;;;28.50
56286;BMP180;42191;47.562;9.686;2023-07-24T11:15:37;96147.00;;;28.50
56286;BMP180;42191;47.562;9.686;2023-07-24T11:18:03;96145.00;;;28.40
56286;BMP180;42191;47.562;9.686;2023-07-24T11:20:30;96149.00;;;28.30
56286;BMP180;42191;47.562;9.686;2023-07-24T11:22:58;96155.00;;;28.20
56286;BMP180;42191;47.562;9.686;2023-07-24T11:25:24;96157.00;;;28.10
56286;BMP180;42191;47.562;9.686;2023-07-24T11:27:50;96180.00;;;28.00
56286;BMP180;42191;47.562;9.686;2023-07-24T11:30:20;96214.00;;;27.90
56286;BMP180;42191;47.562;9.686;2023-07-24T11:32:47;96258.00;;;27.80
56286;BMP180;42191;47.562;9.686;2023-07-24T11:35:14;96271.00;;;27.70
56286;BMP180;42191;47.562;9.686;2023-07-24T11:37:40;96304.00;;;27.70
56286;BMP180;42191;47.562;9.686;2023-07-24T11:40:07;96258.00;;;27.60
56286;BMP180;42191;47.562;9.686;2023-07-24T11:42:42;96201.00;;;27.50
56286;BMP180;42191;47.562;9.686;2023-07-24T11:45:09;96227.00;;;27.50
56286;BMP180;42191;47.562;9.686;2023-07-24T11:47:45;96307.00;;;27.50
56286;BMP180;42191;47.562;9.686;2023-07-24T11:50:11;96313.00;;;27.40
56286;BMP180;42191;47.562;9.686;2023-07-24T11:52:46;96276.00;;;27.20
56286;BMP180;42191;47.562;9.686;2023-07-24T11:55:15;96271.00;;;27.10
56286;BMP180;42191;47.562;9.686;2023-07-24T11:57:42;96230.00;;;27.00
56286;BMP180;42191;47.562;9.686;2023-07-24T12:00:31;96385.00;;;26.90
56286;BMP180;42191;47.562;9.686;2023-07-24T12:03:01;96472.00;;;26.70
56286;BMP180;42191;47.562;9.686;2023-07-24T12:05:38;96476.00;;;26.50
56286;BMP180;42191;47.562;9.686;2023-07-24T12:08:04;96457.00;;;26.10
56286;BMP180;42191;47.562;9.686;2023-07-24T12:10:30;96373.00;;;25.60
56286;BMP180;42191;47.562;9.686;2023-07-24T12:12:59;96322.00;;;25.20
56286;BMP180;42191;47.562;9.686;2023-07-24T12:15:25;96302.00;;;24.90
56286;BMP180;42191;47.562;9.686;2023-07-24T12:17:53;96267.00;;;24.60
56286;BMP180;42191;47.562;9.686;2023-07-24T12:20:19;96230.00;;;24.50
56286;BMP180;42191;47.562;9.686;2023-07-24T12:22:45;96235.00;;;24.40
56286;BMP180;42191;47.562;9.686;2023-07-24T12:25:13;96222.00;;;24.50
56286;BMP180;42191;47.562;9.686;2023-07-24T12:27:39;96218.00;;;24.70
56286;BMP180;42191;47.562;9.686;2023-07-24T12:30:07;96245.00;;;24.90
56286;BMP180;42191;47.562;9.686;2023-07-24T12:32:34;96248.00;;;25.20
56286;BMP180;42191;47.562;9.686;2023-07-24T12:35:01;96215.00;;;25.40
56286;BMP180;42191;47.562;9.686;2023-07-24T12:37:27;96171.00;;;25.70
56286;BMP180;42191;47.562;9.686;2023-07-24T12:39:54;96148.00;;;25.90
56286;BMP180;42191;47.562;9.686;2023-07-24T12:42:20;96145.00;;;26.00
56286;BMP180;42191;47.562;9.686;2023-07-24T12:44:46;96137.00;;;26.20
56286;BMP180;42191;47.562;9.686;2023-07-24T12:47:12;96141.00;;;26.30
56286;BMP180;42191;47.562;9.686;2023-07-24T12:49:39;96138.00;;;26.60
56286;BMP180;42191;47.562;9.686;2023-07-24T12:52:05;96119.00;;;26.80
56286;BMP180;42191;47.562;9.686;2023-07-24T12:54:32;96150.00;;;27.10
56286;BMP180;42191;47.562;9.686;2023-07-24T12:56:58;96160.00;;;27.30
56286;BMP180;42191;47.562;9.686;2023-07-24T12:59:24;96164.00;;;27.50
56286;BMP180;42191;47.562;9.686;2023-07-24T13:01:50;96164.00;;;27.60
56286;BMP180;42191;47.562;9.686;2023-07-24T13:04:16;96178.00;;;27.70
56286;BMP180;42191;47.562;9.686;2023-07-24T13:06:42;96183.00;;;27.80
56286;BMP180;42191;47.562;9.686;2023-07-24T13:09:08;96181.00;;;27.90
56286;BMP180;42191;47.562;9.686;2023-07-24T13:11:34;96175.00;;;28.00
56286;BMP180;42191;47.562;9.686;2023-07-24T13:14:00;96177.00;;;28.10
56286;BMP180;42191;47.562;9.686;2023-07-24T13:16:27;96169.00;;;28.40
56286;BMP180;42191;47.562;9.686;2023-07-24T13:18:53;96163.00;;;28.60
56286;BMP180;42191;47.562;9.686;2023-07-24T13:21:19;96144.00;;;28.80
56286;BMP180;42191;47.562;9.686;2023-07-24T13:23:46;96136.00;;;29.10
56286;BMP180;42191;47.562;9.686;2023-07-24T13:26:12;96121.00;;;29.60
56286;BMP180;42191;47.562;9.686;2023-07-24T13:28:41;96126.00;;;30.30
56286;BMP180;42191;47.562;9.686;2023-07-24T13:31:11;96119.00;;;31.00
56286;BMP180;42191;47.562;9.686;2023-07-24T13:33:37;96117.00;;;31.90
56286;BMP180;42191;47.562;9.686;2023-07-24T13:36:03;96117.00;;;32.90
56286;BMP180;42191;47.562;9.686;2023-07-24T13:38:29;96117.00;;;33.70
56286;BMP180;42191;47.562;9.686;2023-07-24T13:40:55;96122.00;;;34.10
56286;BMP180;42191;47.562;9.686;2023-07-24T13:43:21;96114.00;;;34.30
56286;BMP180;42191;47.562;9.686;2023-07-24T13:45:47;96105.00;;;34.30
56286;BMP180;42191;47.562;9.686;2023-07-24T13:48:13;96106.00;;;34.60
56286;BMP180;42191;47.562;9.686;2023-07-24T13:50:39;96111.00;;;34.90
56286;BMP180;42191;47.562;9.686;2023-07-24T13:53:05;96089.00;;;35.00
56286;BMP180;42191;47.562;9.686;2023-07-24T13:55:32;96072.00;;;35.30
56286;BMP180;42191;47.562;9.686;2023-07-24T13:57:58;96050.00;;;35.50
56286;BMP180;42191;47.562;9.686;2023-07-24T14:00:24;96054.00;;;35.90
56286;BMP180;42191;47.562;9.686;2023-07-24T14:02:49;96066.00;;;36.20
56286;BMP180;42191;47.562;9.686;2023-07-24T14:05:16;96069.00;;;36.30
56286;BMP180;42191;47.562;9.686;2023-07-24T14:07:42;96050.00;;;36.40
56286;BMP180;42191;47.562;9.686;2023-07-24T14:10:08;96054.00;;;36.40
56286;BMP180;42191;47.562;9.686;2023-07-24T14:12:34;96050.00;;;36.50
56286;BMP180;42191;47.562;9.686;2023-07-24T14:15:00;96050.00;;;36.50
56286;BMP180;42191;47.562;9.686;2023-07-24T14:17:26;96047.00;;;36.30